Pierz, Minnesota
Current Conditions -  °F | °C
As of 12:57 PM on Thursday 30 Oct 2014 (Local Time) from KLXL Reporting Station
Drizzle Drizzle  
Wind Chill: 38°   Ceiling: 1300
Heat Index: 41°   Visibility: 5mi
Dew Point: 36°   Wind: 5mph
Humidity: 81%   Direction: 330°NNW
Pressure: 30.14"   Gusts: NA
Location:  45.98°N, 94.1°W
Report Text: KLXL 301757Z AUTO 33004KT 5SM -DZ OVC013 05/02 A3014 RMK AO2
Loading
Personal Weather Stations






























Interactive Weather Map
Tropical Storm Tracking
New forecast layout! Learn more

10-Day Weather Forecast

Advertisements
Track Severe Weather on mobile